createdAt,value
2022-10-04T03:50:47.996Z,7.68
2022-10-04T03:53:29.529Z,7.13
2022-10-04T03:55:59.925Z,6.55
2022-10-04T03:58:32.068Z,7.72
2022-10-04T04:01:04.152Z,5.95
2022-10-04T04:03:38.495Z,5.82
2022-10-04T04:06:12.106Z,5.68
2022-10-04T04:11:23.593Z,6.13
2022-10-04T04:14:00.522Z,5.95
2022-10-04T04:16:28.337Z,6.40
2022-10-04T04:18:59.821Z,6.60
2022-10-04T04:21:27.833Z,6.57
2022-10-04T04:23:59.048Z,6.93
2022-10-04T04:26:28.215Z,5.57
2022-10-04T04:29:03.687Z,6.65
2022-10-04T04:31:36.126Z,8.50
2022-10-04T04:34:06.410Z,9.00
2022-10-04T04:36:40.528Z,9.57
2022-10-04T04:39:44.978Z,10.07
2022-10-04T04:42:18.870Z,6.15
2022-10-04T04:44:50.425Z,5.68
2022-10-04T04:47:40.690Z,6.30
2022-10-04T04:50:17.121Z,7.03
2022-10-04T04:52:50.244Z,9.30
2022-10-04T04:56:01.767Z,8.00
2022-10-04T04:58:33.072Z,7.40
2022-10-04T05:01:04.747Z,7.93
2022-10-04T05:03:33.864Z,6.70
2022-10-04T05:06:02.961Z,8.90
2022-10-04T05:08:31.808Z,7.38
2022-10-04T05:10:58.430Z,8.10
2022-10-04T05:13:44.141Z,8.35
2022-10-04T05:16:22.174Z,8.80
2022-10-04T05:18:54.626Z,8.32
2022-10-04T05:21:31.178Z,6.15
2022-10-04T05:24:06.517Z,9.77
2022-10-04T05:26:33.202Z,8.80
2022-10-04T05:29:06.984Z,9.48
2022-10-04T05:31:39.779Z,9.02
2022-10-04T05:34:21.850Z,10.27
2022-10-04T05:36:57.400Z,10.95
2022-10-04T05:39:39.851Z,8.43
2022-10-04T05:42:12.358Z,10.90
2022-10-04T05:44:54.439Z,10.73
2022-10-04T05:47:24.996Z,6.95
2022-10-04T05:49:55.487Z,6.03
2022-10-04T05:52:38.897Z,10.73
2022-10-04T05:55:23.729Z,12.55
2022-10-04T05:58:09.015Z,11.38
2022-10-04T06:01:00.723Z,10.13
2022-10-04T06:04:12.588Z,9.52
2022-10-04T06:06:42.339Z,17.92
2022-10-04T06:09:27.627Z,13.52
2022-10-04T06:12:13.164Z,9.70
2022-10-04T06:14:56.354Z,13.25
2022-10-04T06:17:43.993Z,12.93
2022-10-04T06:20:48.905Z,8.40
2022-10-04T06:23:21.116Z,13.82
2022-10-04T06:25:51.026Z,10.18
2022-10-04T06:28:31.899Z,15.05
2022-10-04T06:30:58.585Z,10.27
2022-10-04T06:33:53.330Z,12.15
2022-10-04T06:36:34.186Z,10.73
2022-10-04T06:39:30.126Z,10.02
2022-10-04T06:42:18.748Z,18.83
2022-10-04T06:44:46.511Z,13.48
2022-10-04T06:47:25.135Z,11.18
2022-10-04T06:50:06.771Z,15.88
2022-10-04T06:53:08.582Z,17.17
2022-10-04T06:56:07.355Z,24.27
2022-10-04T06:58:48.478Z,17.55
2022-10-04T07:01:28.729Z,13.13
2022-10-04T07:04:27.637Z,18.05
2022-10-04T07:07:27.258Z,11.90
2022-10-04T07:10:32.364Z,10.98
2022-10-04T07:13:50.293Z,10.00
2022-10-04T07:16:16.983Z,10.73
2022-10-04T07:18:52.342Z,10.68
2022-10-04T07:21:20.002Z,13.75
2022-10-04T07:23:51.748Z,7.57
2022-10-04T07:26:44.964Z,11.70
2022-10-04T07:29:26.804Z,12.02
2022-10-04T07:32:06.389Z,9.65
2022-10-04T07:34:46.705Z,9.05
2022-10-04T07:37:14.502Z,9.48
2022-10-04T07:39:48.089Z,6.45
2022-10-04T07:42:32.849Z,6.15
2022-10-04T07:45:39.813Z,10.23
2022-10-04T07:48:16.421Z,10.77
2022-10-04T07:51:04.698Z,7.78
2022-10-04T07:53:43.749Z,9.48
2022-10-04T07:56:14.935Z,5.65
2022-10-04T07:59:09.098Z,6.47
2022-10-04T08:04:17.258Z,5.68
2022-10-04T08:07:02.387Z,6.60
2022-10-04T08:09:42.591Z,6.95
2022-10-04T08:12:28.178Z,5.45
2022-10-04T08:15:17.033Z,5.32
2022-10-04T08:18:26.297Z,8.07
2022-10-04T08:21:00.319Z,7.90
2022-10-04T08:23:41.622Z,4.78
2022-10-04T08:26:29.942Z,6.90
2022-10-04T08:29:28.985Z,6.93
2022-10-04T08:32:10.384Z,5.70
2022-10-04T08:34:51.870Z,5.95
2022-10-04T08:37:49.948Z,5.18
2022-10-04T08:40:26.614Z,6.50
2022-10-04T08:43:21.586Z,6.88
2022-10-04T08:46:10.015Z,7.25
2022-10-04T08:49:08.034Z,6.38
2022-10-04T08:51:53.443Z,6.75
2022-10-04T08:54:45.301Z,5.82
2022-10-04T08:57:16.430Z,6.22
2022-10-04T09:00:08.294Z,7.53
2022-10-04T09:02:47.926Z,6.80
2022-10-04T09:05:53.356Z,7.32
2022-10-04T09:08:54.509Z,7.78
2022-10-04T09:11:42.851Z,7.35
2022-10-04T09:14:48.452Z,5.38
2022-10-04T09:17:43.801Z,8.32
2022-10-04T09:20:37.942Z,9.38
2022-10-04T09:23:20.660Z,9.70
2022-10-04T09:26:05.381Z,5.50
2022-10-04T09:29:09.653Z,8.63
2022-10-04T09:31:51.354Z,6.13
2022-10-04T09:34:37.590Z,5.78
2022-10-04T09:37:09.943Z,8.60
2022-10-04T09:39:52.348Z,7.82
2022-10-04T09:42:36.785Z,5.85
2022-10-04T09:45:31.774Z,7.57
2022-10-04T09:48:39.931Z,7.50
2022-10-04T09:51:20.585Z,7.78
2022-10-04T09:54:15.732Z,13.73
2022-10-04T09:57:06.713Z,7.18
2022-10-04T10:00:02.413Z,6.75
2022-10-04T10:02:56.357Z,7.05
2022-10-04T10:05:48.159Z,5.88
2022-10-04T10:09:06.330Z,6.90
2022-10-04T10:12:10.686Z,9.88
2022-10-04T10:14:46.643Z,5.82
2022-10-04T10:17:20.552Z,7.30
2022-10-04T10:19:53.013Z,8.10
2022-10-04T10:22:46.617Z,8.90
2022-10-04T10:25:25.819Z,7.70
2022-10-04T10:28:15.069Z,7.47
2022-10-04T10:31:08.552Z,7.22
2022-10-04T10:36:32.614Z,10.60
2022-10-04T10:39:44.462Z,10.07
2022-10-04T10:42:48.206Z,9.68
2022-10-04T10:45:14.931Z,9.73
2022-10-04T10:47:52.461Z,12.45
2022-10-04T10:50:33.042Z,9.73
2022-10-04T10:53:37.514Z,10.88
2022-10-04T10:56:32.153Z,11.52
2022-10-04T10:59:05.522Z,10.25
2022-10-04T11:01:38.163Z,9.30
2022-10-04T11:04:38.561Z,9.80
2022-10-04T11:07:46.294Z,8.77
2022-10-04T11:10:26.615Z,8.95
2022-10-04T11:13:25.842Z,7.55
2022-10-04T11:16:21.862Z,10.38
2022-10-04T11:19:35.593Z,6.68
2022-10-04T11:22:44.734Z,7.80
2022-10-04T11:25:36.119Z,8.68
2022-10-04T11:28:12.753Z,11.10
2022-10-04T11:30:51.585Z,9.60
2022-10-04T11:33:56.066Z,10.07
2022-10-04T11:36:42.834Z,10.32
2022-10-04T11:39:34.197Z,10.60
2022-10-04T11:42:07.704Z,9.43
2022-10-04T11:44:47.466Z,9.18
2022-10-04T11:47:21.643Z,8.32
2022-10-04T11:50:08.646Z,7.88
2022-10-04T11:52:44.370Z,8.27
2022-10-04T11:55:31.196Z,9.48
2022-10-04T11:58:16.338Z,7.93
2022-10-04T12:01:30.300Z,8.18
2022-10-04T12:04:38.683Z,8.35
2022-10-04T12:07:31.785Z,7.80
2022-10-04T12:10:23.489Z,8.73
2022-10-04T12:13:17.402Z,9.15
2022-10-04T12:18:36.654Z,10.32
2022-10-04T12:21:25.797Z,10.07
2022-10-04T12:24:36.629Z,10.18
2022-10-04T12:27:18.137Z,9.88
2022-10-04T12:29:56.850Z,9.15
2022-10-04T12:32:30.271Z,8.80
2022-10-04T12:38:08.666Z,11.70
2022-10-04T12:40:51.033Z,10.00
2022-10-04T12:43:17.716Z,11.15
2022-10-04T12:46:15.309Z,9.48
2022-10-04T12:49:10.889Z,9.35
2022-10-04T12:51:53.163Z,8.68
2022-10-04T12:54:37.780Z,7.65
2022-10-04T12:57:29.213Z,6.85
2022-10-04T13:00:14.748Z,8.10
2022-10-04T13:03:06.029Z,7.60
2022-10-04T13:05:48.465Z,8.95
2022-10-04T13:08:43.436Z,8.02
2022-10-04T13:11:42.395Z,7.85
2022-10-04T13:14:28.121Z,7.30
2022-10-04T13:17:35.315Z,11.05
2022-10-04T13:20:01.299Z,7.95
2022-10-04T13:22:58.717Z,9.98
2022-10-04T13:25:28.325Z,8.02
2022-10-04T13:28:23.335Z,8.20
2022-10-04T13:31:01.585Z,9.70
2022-10-04T13:33:47.997Z,10.30
2022-10-04T13:36:31.321Z,10.38
2022-10-04T13:39:27.250Z,9.25
2022-10-04T13:42:02.865Z,11.98
2022-10-04T13:44:47.386Z,10.05
2022-10-04T13:47:29.290Z,7.72
2022-10-04T13:50:06.990Z,7.15
2022-10-04T13:53:21.522Z,8.10
2022-10-04T13:58:55.545Z,9.25
2022-10-04T14:01:37.418Z,8.93
2022-10-04T14:04:31.198Z,7.72
2022-10-04T14:07:18.066Z,7.53
2022-10-04T14:10:22.840Z,7.53
2022-10-04T14:12:49.453Z,10.00
2022-10-04T14:15:53.838Z,8.00
2022-10-04T14:18:58.807Z,7.93
2022-10-04T14:21:52.581Z,8.57
2022-10-04T14:25:10.164Z,9.45
2022-10-04T14:28:00.749Z,7.40
2022-10-04T14:30:58.289Z,8.30
2022-10-04T14:33:43.851Z,7.93
2022-10-04T14:36:48.589Z,15.95
2022-10-04T14:39:50.517Z,8.43
2022-10-04T14:42:52.093Z,7.40
2022-10-04T14:45:37.743Z,6.80
2022-10-04T14:48:25.774Z,8.77
2022-10-04T14:51:14.291Z,7.78
2022-10-04T14:54:14.786Z,7.53
2022-10-04T14:56:57.893Z,7.32
2022-10-04T14:59:53.753Z,9.00
2022-10-04T15:02:43.816Z,7.78
2022-10-04T15:05:30.926Z,7.53
2022-10-04T15:08:22.788Z,8.07
2022-10-04T15:10:53.437Z,7.43
2022-10-04T15:13:55.895Z,6.43
2022-10-04T15:16:33.122Z,6.18
2022-10-04T15:19:11.147Z,7.80
2022-10-04T15:21:52.979Z,6.63
2022-10-04T15:24:20.385Z,7.75
2022-10-04T15:27:24.749Z,9.43
2022-10-04T15:29:57.997Z,6.95
2022-10-04T15:32:35.749Z,6.75
2022-10-04T15:35:23.503Z,6.65
2022-10-04T15:38:04.694Z,8.90
2022-10-04T15:40:52.882Z,11.30
2022-10-04T15:43:22.881Z,7.93
2022-10-04T15:46:20.654Z,8.70
2022-10-04T15:49:19.545Z,8.40
2022-10-04T15:52:04.710Z,8.65
2022-10-04T15:55:02.102Z,8.95
2022-10-04T15:57:52.873Z,6.95
2022-10-04T16:00:56.228Z,7.30
2022-10-04T16:04:11.407Z,13.53
2022-10-04T16:06:47.264Z,9.00
2022-10-04T16:09:39.032Z,7.28
2022-10-04T16:12:19.158Z,9.48
2022-10-04T16:15:01.043Z,10.50
2022-10-04T16:17:32.805Z,14.73
2022-10-04T16:20:18.239Z,12.02
2022-10-04T16:23:25.231Z,10.00
2022-10-04T16:25:53.729Z,9.48
2022-10-04T16:28:29.723Z,13.25
2022-10-04T16:31:20.814Z,11.13
2022-10-04T16:34:07.150Z,9.00
2022-10-04T16:37:24.039Z,12.27
2022-10-04T16:39:59.736Z,8.35
2022-10-04T16:43:03.845Z,10.52
2022-10-04T16:45:54.613Z,9.00
2022-10-04T16:48:57.491Z,8.77
2022-10-04T16:52:19.306Z,9.18
2022-10-04T16:54:58.138Z,7.78
2022-10-04T16:57:27.581Z,8.55
2022-10-04T17:00:06.810Z,9.48
2022-10-04T17:03:07.556Z,8.25
2022-10-04T17:05:58.438Z,8.75
2022-10-04T17:08:45.746Z,9.07
2022-10-04T17:11:40.319Z,8.85
2022-10-04T17:14:32.537Z,9.25
2022-10-04T17:17:24.870Z,8.00
2022-10-04T17:20:01.702Z,10.27
2022-10-04T17:22:47.016Z,9.10
2022-10-04T17:25:51.772Z,11.48
2022-10-04T17:28:29.151Z,11.23
2022-10-04T17:31:06.774Z,9.52
2022-10-04T17:33:57.266Z,8.65
2022-10-04T17:36:32.789Z,7.93
2022-10-04T17:39:17.649Z,10.82
2022-10-04T17:42:19.501Z,9.85
2022-10-04T17:44:58.325Z,14.35
2022-10-04T17:47:58.966Z,9.13
2022-10-04T17:51:00.321Z,13.85
2022-10-04T17:53:53.802Z,11.98
2022-10-04T17:56:42.696Z,8.80
2022-10-04T17:59:19.155Z,9.48
2022-10-04T18:01:51.899Z,11.82
2022-10-04T18:04:30.379Z,8.38
2022-10-04T18:07:19.008Z,10.40
2022-10-04T18:09:50.530Z,10.75
2022-10-04T18:12:31.953Z,10.93
2022-10-04T18:15:08.461Z,8.32
2022-10-04T18:17:46.161Z,11.20
2022-10-04T18:20:18.217Z,13.63
2022-10-04T18:22:51.234Z,10.90
2022-10-04T18:25:23.464Z,11.57
2022-10-04T18:28:08.294Z,11.00
2022-10-04T18:30:53.966Z,8.75
2022-10-04T18:33:46.553Z,10.10
2022-10-04T18:36:24.545Z,14.20
2022-10-04T18:39:10.981Z,11.80
2022-10-04T18:41:52.110Z,11.63
2022-10-04T18:44:29.505Z,13.00
2022-10-04T18:46:59.370Z,11.45
2022-10-04T18:49:47.487Z,13.52
2022-10-04T18:52:52.646Z,11.02
2022-10-04T18:55:40.630Z,12.65
2022-10-04T18:58:42.901Z,11.32
2022-10-04T19:01:59.944Z,12.15
2022-10-04T19:04:42.848Z,13.52
2022-10-04T19:07:29.101Z,12.85
2022-10-04T19:10:01.486Z,12.07
2022-10-04T19:12:54.623Z,11.63
2022-10-04T19:15:39.834Z,11.38
2022-10-04T19:18:09.321Z,11.13
2022-10-04T19:20:41.277Z,12.48
2022-10-04T19:23:26.622Z,14.98
2022-10-04T19:26:30.037Z,11.88
2022-10-04T19:28:50.979Z,11.00
2022-10-04T19:31:26.004Z,11.02
2022-10-04T19:34:01.806Z,12.95
2022-10-04T19:36:56.393Z,12.27
2022-10-04T19:39:35.417Z,12.70
2022-10-04T19:42:12.617Z,13.57
2022-10-04T19:44:46.713Z,11.70
2022-10-04T19:47:47.500Z,12.88
2022-10-04T19:50:18.079Z,15.27
2022-10-04T19:52:53.846Z,11.65
2022-10-04T19:55:20.574Z,11.50
2022-10-04T19:58:24.746Z,10.98
2022-10-04T20:00:51.487Z,11.13
2022-10-04T20:03:18.214Z,14.90
2022-10-04T20:05:57.509Z,48.22
2022-10-04T20:08:49.372Z,23.92
2022-10-04T20:11:49.948Z,14.85
2022-10-04T20:14:16.901Z,12.43
2022-10-04T20:16:47.012Z,12.68
2022-10-04T20:19:29.389Z,11.15
2022-10-04T20:22:20.120Z,12.63
2022-10-04T20:24:46.816Z,13.52
2022-10-04T20:27:26.442Z,45.10
2022-10-04T20:30:03.955Z,23.25
2022-10-04T20:32:33.082Z,18.50
2022-10-04T20:35:01.814Z,15.23
2022-10-04T20:38:19.960Z,10.45
2022-10-04T20:40:44.770Z,17.98
2022-10-04T20:43:14.400Z,12.90
2022-10-04T20:45:50.152Z,12.40
2022-10-04T20:48:21.007Z,11.85
2022-10-04T20:50:49.783Z,13.27
2022-10-04T20:53:26.640Z,19.33
2022-10-04T20:56:19.674Z,21.65
2022-10-04T20:59:03.362Z,19.88
2022-10-04T21:01:35.315Z,17.27
2022-10-04T21:04:41.520Z,17.83
2022-10-04T21:07:13.862Z,12.80
2022-10-04T21:09:41.892Z,15.30
2022-10-04T21:12:40.101Z,14.18
2022-10-04T21:15:15.793Z,15.70
2022-10-04T21:17:44.121Z,15.65
2022-10-04T21:20:15.442Z,14.27
2022-10-04T21:22:42.412Z,12.93
2022-10-04T21:25:31.187Z,15.20
2022-10-04T21:28:33.442Z,13.35
2022-10-04T21:31:01.184Z,14.05
2022-10-04T21:33:27.861Z,12.27
2022-10-04T21:35:54.489Z,12.52
2022-10-04T21:38:21.139Z,11.93
2022-10-04T21:40:47.853Z,14.95
2022-10-04T21:43:14.498Z,13.75
2022-10-04T21:45:41.514Z,15.00
2022-10-04T21:48:08.277Z,15.57
2022-10-04T21:50:34.984Z,13.23
2022-10-04T21:53:01.630Z,13.55
2022-10-04T21:55:28.412Z,11.88
2022-10-04T21:57:55.198Z,14.45
2022-10-04T22:00:23.059Z,13.80
2022-10-04T22:02:49.962Z,16.05
2022-10-04T22:05:16.795Z,13.90
2022-10-04T22:07:43.552Z,12.30
2022-10-04T22:10:10.493Z,14.75
2022-10-04T22:12:37.305Z,12.95
2022-10-04T22:15:05.318Z,15.40
2022-10-04T22:17:31.986Z,11.25
2022-10-04T22:19:58.636Z,12.20
2022-10-04T22:22:25.323Z,12.63
2022-10-04T22:24:51.964Z,12.77
2022-10-04T22:27:20.720Z,14.15
2022-10-04T22:29:47.761Z,16.02
2022-10-04T22:32:28.036Z,13.85
2022-10-04T22:35:10.707Z,13.98
2022-10-04T22:37:37.404Z,12.65
2022-10-04T22:40:04.447Z,15.98
2022-10-04T22:42:31.802Z,15.98
2022-10-04T22:45:01.736Z,12.38
2022-10-04T22:47:30.803Z,14.85
2022-10-04T22:49:57.628Z,13.05
2022-10-04T22:52:25.666Z,12.32
2022-10-04T22:54:57.753Z,13.40
2022-10-04T22:57:24.786Z,12.98
2022-10-04T22:59:52.835Z,12.50
